Time;durP1;ratioP1;P1;durP2;ratioP2;P2;SDS_P1;SDS_P2;PMS_P1;PMS_P2;Temp;Humidity;BMP_temperature;BMP_pressure;BME280_temperature;BME280_humidity;BME280_pressure;Samples;Min_cycle;Max_cycle;Signal;HPM_P1;HPM_P2
2023/05/05 00:01:36;;;;;;;5.93;3.57;;;11.10;81.00;;;;;;5049746;28;20037;-72
2023/05/05 00:04:02;;;;;;;8.73;4.60;;;11.10;81.40;;;;;;5048202;28;20099;-72
2023/05/05 00:06:28;;;;;;;12.10;4.23;;;11.10;81.00;;;;;;5042796;28;20037;-72
2023/05/05 00:08:54;;;;;;;8.73;4.33;;;11.10;81.10;;;;;;5040262;28;20049;-72
2023/05/05 00:11:20;;;;;;;7.30;3.92;;;11.20;81.20;;;;;;5046261;28;20072;-72
2023/05/05 00:13:46;;;;;;;12.83;4.57;;;11.20;81.20;;;;;;5031594;28;20103;-72
2023/05/05 00:16:12;;;;;;;7.47;3.90;;;11.30;80.80;;;;;;5044654;28;20066;-72
2023/05/05 00:18:37;;;;;;;6.07;4.03;;;11.30;80.30;;;;;;5026570;28;20049;-72
2023/05/05 00:21:03;;;;;;;9.13;4.20;;;11.30;80.70;;;;;;5045890;28;20041;-72
2023/05/05 00:23:29;;;;;;;7.77;4.13;;;11.30;80.40;;;;;;5050344;28;20045;-72
2023/05/05 00:25:54;;;;;;;9.37;4.17;;;11.30;81.00;;;;;;5033298;28;20120;-72
2023/05/05 00:28:20;;;;;;;6.17;4.40;;;11.20;80.80;;;;;;5049321;28;20043;-72
2023/05/05 00:30:46;;;;;;;8.40;4.40;;;11.20;81.10;;;;;;5045955;28;20037;-72
2023/05/05 00:33:12;;;;;;;11.43;4.80;;;11.20;81.20;;;;;;5043945;28;20311;-72
2023/05/05 00:35:37;;;;;;;5.77;4.07;;;11.20;81.20;;;;;;5036853;28;20037;-72
2023/05/05 00:38:03;;;;;;;8.77;4.53;;;11.20;81.20;;;;;;5038497;28;20099;-72
2023/05/05 00:40:30;;;;;;;6.67;4.13;;;11.20;80.80;;;;;;5027412;28;20460;-72
2023/05/05 00:42:58;;;;;;;11.90;4.10;;;11.20;80.70;;;;;;5045803;28;20288;-72
2023/05/05 00:45:24;;;;;;;6.82;4.50;;;11.20;80.50;;;;;;5040915;28;20045;-72
2023/05/05 00:47:52;;;;;;;10.43;4.37;;;11.30;80.30;;;;;;5032598;28;20055;-72
2023/05/05 00:50:24;;;;;;;8.10;4.28;;;11.20;80.40;;;;;;5032695;28;20091;-72
2023/05/05 00:52:53;;;;;;;8.95;4.50;;;11.20;80.50;;;;;;5047852;28;20044;-72
2023/05/05 00:55:19;;;;;;;7.90;4.00;;;11.10;80.70;;;;;;5046865;28;20037;-72
2023/05/05 00:57:45;;;;;;;9.55;4.10;;;11.00;80.80;;;;;;5039431;28;20043;-72
2023/05/05 01:00:11;;;;;;;9.18;4.35;;;10.90;80.80;;;;;;5048574;28;20120;-72
2023/05/05 01:02:38;;;;;;;8.55;4.20;;;10.90;81.30;;;;;;5041059;28;20059;-72
2023/05/05 01:05:05;;;;;;;7.22;4.20;;;10.80;81.80;;;;;;5048519;28;20096;-72
2023/05/05 01:07:50;;;;;;;9.13;4.78;;;10.80;82.00;;;;;;5047807;28;20107;-72
2023/05/05 01:10:24;;;;;;;8.00;4.85;;;10.70;82.10;;;;;;5040672;28;20060;-72
2023/05/05 01:13:12;;;;;;;6.60;4.50;;;10.70;82.50;;;;;;5026266;28;20103;-72
2023/05/05 01:16:36;;;;;;;8.15;4.95;;;10.60;82.70;;;;;;5031758;28;20106;-72
2023/05/05 01:19:49;;;;;;;9.23;4.70;;;10.50;83.20;;;;;;5020608;28;20053;-72
2023/05/05 01:22:20;;;;;;;6.10;4.20;;;10.50;83.20;;;;;;4953951;28;20043;-72
2023/05/05 01:24:58;;;;;;;7.22;4.95;;;10.50;83.50;;;;;;5037976;28;20557;-72
2023/05/05 01:27:52;;;;;;;8.35;3.97;;;10.50;83.60;;;;;;5047710;28;20053;-72
2023/05/05 01:30:42;;;;;;;10.73;4.95;;;10.50;83.60;;;;;;5031181;28;20440;-72
2023/05/05 01:33:13;;;;;;;8.48;4.80;;;10.60;83.80;;;;;;5020678;28;20052;-72
2023/05/05 01:35:46;;;;;;;12.25;5.15;;;10.50;83.40;;;;;;5020958;28;20072;-72
2023/05/05 01:38:31;;;;;;;9.60;5.22;;;10.50;83.90;;;;;;5041162;28;20041;-72
2023/05/05 01:41:03;;;;;;;10.10;5.03;;;10.60;84.60;;;;;;5036463;28;20049;-72
2023/05/05 01:43:32;;;;;;;7.55;4.63;;;10.60;84.10;;;;;;5027654;28;20076;-72
2023/05/05 01:45:59;;;;;;;9.80;5.07;;;10.60;84.00;;;;;;5041774;28;20409;-72
2023/05/05 01:48:25;;;;;;;13.60;5.25;;;10.60;84.60;;;;;;5017952;28;20443;-72
2023/05/05 01:50:52;;;;;;;8.80;5.30;;;10.60;83.80;;;;;;5031459;28;20061;-72
2023/05/05 01:53:20;;;;;;;8.07;4.90;;;10.60;84.30;;;;;;5038675;28;20049;-72
2023/05/05 01:55:48;;;;;;;7.85;5.15;;;10.60;84.00;;;;;;5040702;28;20110;-72
2023/05/05 01:58:15;;;;;;;10.52;5.30;;;10.50;84.00;;;;;;5026627;28;20045;-72
2023/05/05 02:00:42;;;;;;;11.25;5.68;;;10.50;84.50;;;;;;5028302;28;20041;-72
2023/05/05 02:03:11;;;;;;;10.90;5.72;;;10.50;84.40;;;;;;5051192;28;20037;-72
2023/05/05 02:05:38;;;;;;;9.70;5.22;;;10.50;84.20;;;;;;5040315;28;20424;-72
2023/05/05 02:08:05;;;;;;;8.60;5.00;;;10.40;84.90;;;;;;5049969;28;20390;-72
2023/05/05 02:10:31;;;;;;;11.73;5.68;;;10.30;84.90;;;;;;5044151;28;20084;-72
2023/05/05 02:13:01;;;;;;;9.85;5.13;;;10.30;85.40;;;;;;5044264;28;20528;-72
2023/05/05 02:15:28;;;;;;;8.23;5.38;;;10.30;85.80;;;;;;5047986;28;20052;-72
2023/05/05 02:17:55;;;;;;;9.05;5.40;;;10.20;86.00;;;;;;5043028;28;20370;-72
2023/05/05 02:20:22;;;;;;;9.82;5.40;;;10.30;85.90;;;;;;5047305;28;20033;-72
2023/05/05 02:22:48;;;;;;;13.15;5.70;;;10.20;86.30;;;;;;5032711;28;20037;-72
2023/05/05 02:25:16;;;;;;;10.07;5.47;;;10.20;86.20;;;;;;5026005;28;20496;-72
2023/05/05 02:27:43;;;;;;;9.07;5.20;;;10.20;86.20;;;;;;5045784;28;20048;-72
2023/05/05 02:30:13;;;;;;;11.05;6.00;;;10.20;86.10;;;;;;5050953;28;20041;-73
2023/05/05 02:33:05;;;;;;;9.50;5.15;;;10.20;86.60;;;;;;5044031;28;20470;-72
2023/05/05 02:35:41;;;;;;;8.98;5.65;;;10.20;86.50;;;;;;5059257;28;20069;-72
2023/05/05 02:38:16;;;;;;;11.73;6.35;;;10.20;86.50;;;;;;5029079;28;20060;-71
2023/05/05 02:40:43;;;;;;;11.15;5.88;;;10.20;86.40;;;;;;5035799;28;20049;-72
2023/05/05 02:43:14;;;;;;;9.13;5.95;;;10.20;86.60;;;;;;5049652;28;20130;-72
2023/05/05 02:45:39;;;;;;;12.07;5.65;;;10.20;86.70;;;;;;5031007;28;20049;-72
2023/05/05 02:48:05;;;;;;;10.67;6.73;;;10.20;86.70;;;;;;5047987;28;20102;-72
2023/05/05 02:50:32;;;;;;;8.03;5.77;;;10.20;86.70;;;;;;5027681;28;20107;-72
2023/05/05 02:52:59;;;;;;;13.00;6.20;;;10.20;87.10;;;;;;5045173;28;20579;-72
2023/05/05 02:55:42;;;;;;;7.65;5.95;;;10.20;87.40;;;;;;5028950;28;20497;-72
2023/05/05 02:58:41;;;;;;;12.35;5.93;;;10.20;87.30;;;;;;5047370;28;20029;-72
2023/05/05 03:01:07;;;;;;;8.77;6.05;;;10.20;87.40;;;;;;5029821;28;20131;-72
2023/05/05 03:03:45;;;;;;;11.93;5.63;;;10.30;87.10;;;;;;5033714;28;20076;-72
2023/05/05 03:06:16;;;;;;;10.00;6.47;;;10.30;87.10;;;;;;5050718;28;20049;-72
2023/05/05 03:08:47;;;;;;;9.40;5.88;;;10.40;87.20;;;;;;5050033;28;20079;-72
2023/05/05 03:11:45;;;;;;;10.57;5.95;;;10.40;87.50;;;;;;5046997;28;20041;-72
2023/05/05 03:14:17;;;;;;;8.27;5.43;;;10.40;87.90;;;;;;5025858;28;20046;-72
2023/05/05 03:16:45;;;;;;;8.88;6.70;;;10.40;87.60;;;;;;5047196;28;20434;-72
2023/05/05 03:19:14;;;;;;;13.30;7.35;;;10.40;87.60;;;;;;5039695;28;20528;-72
2023/05/05 03:21:41;;;;;;;15.50;7.55;;;10.50;88.40;;;;;;5034841;28;20037;-72
2023/05/05 03:24:14;;;;;;;10.23;7.60;;;10.50;89.20;;;;;;5057158;28;20036;-72
2023/05/05 03:26:40;;;;;;;11.93;7.47;;;10.50;90.60;;;;;;5041178;28;20037;-73
2023/05/05 03:29:06;;;;;;;12.77;7.60;;;10.40;91.60;;;;;;5034488;28;20051;-73
2023/05/05 03:31:32;;;;;;;12.00;7.87;;;10.40;93.70;;;;;;5053586;28;20053;-73
2023/05/05 03:33:58;;;;;;;11.35;7.93;;;10.40;97.20;;;;;;5044592;28;20444;-73
2023/05/05 03:36:23;;;;;;;11.70;8.10;;;10.40;98.20;;;;;;5053035;28;20114;-73
2023/05/05 03:38:49;;;;;;;13.50;8.43;;;10.30;97.40;;;;;;5040352;28;20037;-73
2023/05/05 03:41:15;;;;;;;14.03;8.27;;;10.30;99.70;;;;;;5035408;28;20045;-73
2023/05/05 03:43:41;;;;;;;12.10;8.30;;;10.30;99.90;;;;;;5042351;28;20036;-73
2023/05/05 03:46:06;;;;;;;14.43;8.20;;;10.30;99.90;;;;;;5043893;28;20049;-74
2023/05/05 03:48:33;;;;;;;12.20;8.50;;;10.30;99.90;;;;;;5047067;28;20303;-74
2023/05/05 03:50:59;;;;;;;14.63;8.80;;;10.30;99.90;;;;;;5059931;28;20492;-74
2023/05/05 03:53:24;;;;;;;14.13;8.80;;;10.30;99.90;;;;;;5056054;28;20053;-73
2023/05/05 03:55:51;;;;;;;14.23;9.70;;;10.20;99.90;;;;;;5060868;28;20044;-75
2023/05/05 03:58:17;;;;;;;14.63;9.95;;;10.20;99.90;;;;;;5050816;28;20044;-75
2023/05/05 04:00:43;;;;;;;16.40;10.13;;;10.20;99.90;;;;;;5031463;28;20408;-74
2023/05/05 04:03:09;;;;;;;18.57;11.23;;;10.10;99.90;;;;;;5022874;28;20037;-74
2023/05/05 04:05:35;;;;;;;16.35;10.50;;;10.00;99.90;;;;;;5041651;28;20049;-74
2023/05/05 04:08:02;;;;;;;17.70;10.30;;;9.90;99.90;;;;;;5045942;28;20058;-74
2023/05/05 04:10:31;;;;;;;15.30;9.88;;;9.90;99.90;;;;;;5051157;28;20072;-74
2023/05/05 04:12:56;;;;;;;13.55;9.95;;;9.80;99.90;;;;;;5050481;28;20041;-74
2023/05/05 04:15:22;;;;;;;14.93;9.77;;;9.80;99.90;;;;;;5028879;28;20048;-74
2023/05/05 04:17:48;;;;;;;15.10;10.00;;;9.70;99.90;;;;;;5046083;28;20037;-74
2023/05/05 04:20:13;;;;;;;14.77;9.40;;;9.70;99.90;;;;;;5051385;28;20053;-74
2023/05/05 04:22:39;;;;;;;14.57;9.97;;;9.70;99.90;;;;;;5026344;28;20429;-74
2023/05/05 04:25:05;;;;;;;16.37;10.20;;;9.70;99.90;;;;;;5032903;28;20037;-74
2023/05/05 04:27:31;;;;;;;16.13;10.60;;;9.70;99.90;;;;;;5051390;28;20410;-74
2023/05/05 04:29:57;;;;;;;14.47;10.23;;;9.60;99.90;;;;;;5030538;28;20047;-74
2023/05/05 04:32:23;;;;;;;16.23;9.40;;;9.60;99.90;;;;;;5042043;28;20063;-74
2023/05/05 04:34:48;;;;;;;13.87;9.73;;;9.50;99.90;;;;;;5033369;28;20136;-74
2023/05/05 04:37:14;;;;;;;14.13;9.50;;;9.50;99.90;;;;;;5041335;28;20041;-74
2023/05/05 04:39:40;;;;;;;19.42;11.35;;;9.50;99.90;;;;;;5025448;28;20057;-74
2023/05/05 04:42:07;;;;;;;16.33;10.47;;;9.50;99.90;;;;;;5030892;28;20043;-74
2023/05/05 04:44:33;;;;;;;15.38;9.95;;;9.50;99.90;;;;;;5046904;28;20099;-74
2023/05/05 04:46:59;;;;;;;13.13;9.30;;;9.50;99.90;;;;;;5051976;28;20501;-74
2023/05/05 04:49:28;;;;;;;14.57;10.23;;;9.50;99.90;;;;;;5038230;28;20111;-74
2023/05/05 04:51:54;;;;;;;13.93;9.95;;;9.50;99.90;;;;;;5053314;28;20943;-74
2023/05/05 04:54:20;;;;;;;15.83;10.73;;;9.50;99.90;;;;;;5045937;28;20045;-74
2023/05/05 04:56:46;;;;;;;15.57;9.93;;;9.50;99.90;;;;;;5048566;28;20072;-74
2023/05/05 04:59:12;;;;;;;14.38;10.57;;;9.40;99.90;;;;;;5033326;28;20049;-74
2023/05/05 05:01:38;;;;;;;15.25;10.35;;;9.40;99.90;;;;;;5046015;28;20406;-74
2023/05/05 05:04:04;;;;;;;13.57;10.07;;;9.40;99.90;;;;;;5026111;28;20041;-74
2023/05/05 05:06:30;;;;;;;13.30;9.90;;;9.40;99.90;;;;;;5043176;28;20041;-74
2023/05/05 05:08:56;;;;;;;13.10;9.77;;;9.50;99.90;;;;;;5043390;28;20036;-74
2023/05/05 05:11:22;;;;;;;16.90;11.07;;;9.50;99.90;;;;;;5050153;28;20033;-74
2023/05/05 05:13:48;;;;;;;15.30;10.73;;;9.50;99.90;;;;;;5039727;28;20036;-74
2023/05/05 05:16:14;;;;;;;14.70;10.20;;;9.60;99.90;;;;;;5026331;28;20076;-74
2023/05/05 05:18:40;;;;;;;15.32;10.32;;;9.60;99.90;;;;;;5045688;28;20044;-74
2023/05/05 05:21:05;;;;;;;16.00;10.50;;;9.70;99.90;;;;;;5046261;28;20051;-74
2023/05/05 05:23:31;;;;;;;15.53;11.13;;;9.70;99.90;;;;;;5046415;28;20038;-74
2023/05/05 05:25:57;;;;;;;13.73;10.10;;;9.70;99.90;;;;;;5043300;28;20579;-74
2023/05/05 05:28:23;;;;;;;13.50;10.20;;;9.70;99.90;;;;;;5030051;28;20041;-74
2023/05/05 05:30:48;;;;;;;14.23;11.00;;;9.70;99.90;;;;;;5032860;28;20126;-74
2023/05/05 05:33:14;;;;;;;16.63;10.80;;;9.60;99.90;;;;;;5042401;28;20041;-74
2023/05/05 05:35:40;;;;;;;13.33;10.57;;;9.70;99.90;;;;;;5041489;28;20382;-74
2023/05/05 05:38:05;;;;;;;12.77;10.33;;;9.70;99.90;;;;;;5058642;28;20099;-74
2023/05/05 05:40:31;;;;;;;14.67;10.67;;;9.70;99.90;;;;;;5047685;28;20097;-74
2023/05/05 05:42:57;;;;;;;15.30;11.17;;;9.70;99.90;;;;;;5030574;28;20108;-74
2023/05/05 05:45:23;;;;;;;12.07;10.17;;;9.80;99.90;;;;;;5027629;28;20043;-74
2023/05/05 05:47:48;;;;;;;15.53;11.43;;;9.90;99.90;;;;;;5030649;28;20061;-74
2023/05/05 05:50:14;;;;;;;15.20;11.03;;;10.00;99.90;;;;;;5026510;28;20053;-74
2023/05/05 05:52:40;;;;;;;15.27;11.40;;;10.10;99.90;;;;;;5031409;28;20433;-74
2023/05/05 05:55:06;;;;;;;17.27;12.03;;;10.20;99.90;;;;;;5032184;28;20904;-74
2023/05/05 05:57:32;;;;;;;18.42;11.60;;;10.30;99.90;;;;;;5042588;28;20037;-74
2023/05/05 05:59:58;;;;;;;20.03;11.60;;;10.40;99.90;;;;;;5031578;28;20435;-74
2023/05/05 06:02:25;;;;;;;17.43;12.20;;;10.60;99.90;;;;;;5026020;28;20095;-74
2023/05/05 06:04:51;;;;;;;18.25;12.65;;;10.70;99.90;;;;;;5028057;28;20064;-74
2023/05/05 06:07:17;;;;;;;17.35;11.90;;;10.80;99.90;;;;;;5020643;28;20092;-74
2023/05/05 06:09:42;;;;;;;16.83;12.80;;;10.90;99.90;;;;;;5045524;28;20485;-74
2023/05/05 06:12:08;;;;;;;19.47;12.73;;;11.00;99.90;;;;;;5047029;28;20463;-74
2023/05/05 06:14:34;;;;;;;16.23;12.33;;;11.20;99.90;;;;;;5027354;28;20041;-74
2023/05/05 06:16:59;;;;;;;18.93;12.70;;;11.50;99.90;;;;;;5028336;28;20453;-74
2023/05/05 06:19:25;;;;;;;15.33;11.80;;;11.60;99.90;;;;;;5031613;28;20043;-74
2023/05/05 06:21:51;;;;;;;14.50;11.30;;;11.80;99.90;;;;;;5026518;28;20037;-74
2023/05/05 06:24:16;;;;;;;18.40;11.67;;;11.80;99.90;;;;;;5048117;28;20040;-74
2023/05/05 06:26:42;;;;;;;15.47;11.77;;;11.80;99.90;;;;;;5030556;28;20105;-74
2023/05/05 06:29:08;;;;;;;14.17;11.10;;;11.90;99.90;;;;;;5026901;28;20440;-74
2023/05/05 06:31:33;;;;;;;15.40;11.83;;;12.00;99.90;;;;;;5047534;28;20198;-74
2023/05/05 06:33:59;;;;;;;15.67;11.60;;;12.20;99.90;;;;;;5030986;28;20041;-74
2023/05/05 06:36:25;;;;;;;14.93;11.63;;;12.50;99.90;;;;;;5036966;28;20025;-74
2023/05/05 06:38:50;;;;;;;15.63;11.67;;;12.80;99.90;;;;;;5042076;28;20079;-74
2023/05/05 06:41:17;;;;;;;13.20;11.43;;;13.00;99.90;;;;;;5027653;28;20452;-74
2023/05/05 06:43:43;;;;;;;15.83;11.93;;;13.30;99.90;;;;;;5039121;28;20124;-74
2023/05/05 06:46:09;;;;;;;18.93;12.00;;;13.80;99.90;;;;;;5028788;28;20292;-74
2023/05/05 06:48:36;;;;;;;13.60;11.33;;;14.10;99.90;;;;;;5050778;28;20299;-74
2023/05/05 06:51:02;;;;;;;16.10;11.87;;;14.30;99.90;;;;;;5051388;28;20338;-75
2023/05/05 06:53:28;;;;;;;16.97;11.57;;;14.50;99.90;;;;;;5035364;28;20103;-74
2023/05/05 06:55:54;;;;;;;13.87;11.57;;;14.50;99.90;;;;;;5034140;28;20057;-74
2023/05/05 06:58:20;;;;;;;14.90;11.80;;;14.50;99.90;;;;;;5050943;28;20041;-74
2023/05/05 07:00:46;;;;;;;18.63;11.43;;;14.40;99.90;;;;;;5033049;28;21336;-75
2023/05/05 07:03:12;;;;;;;12.63;11.20;;;14.20;99.90;;;;;;5054506;28;20287;-74
2023/05/05 07:05:38;;;;;;;16.37;12.27;;;14.20;99.90;;;;;;5055166;28;20045;-74
2023/05/05 07:08:03;;;;;;;14.07;11.43;;;14.20;99.90;;;;;;5052355;28;20321;-73
2023/05/05 07:10:30;;;;;;;16.07;11.60;;;14.20;99.90;;;;;;5036053;28;20041;-73
2023/05/05 07:12:56;;;;;;;15.43;12.30;;;14.20;99.90;;;;;;5048205;28;20055;-73
2023/05/05 07:15:22;;;;;;;15.63;11.80;;;14.30;99.90;;;;;;5037470;28;20275;-73
2023/05/05 07:17:48;;;;;;;17.53;11.87;;;14.40;99.90;;;;;;5036744;28;20037;-73
2023/05/05 07:20:14;;;;;;;16.37;12.93;;;14.50;99.90;;;;;;5039270;28;20120;-73
2023/05/05 07:22:40;;;;;;;15.80;12.67;;;14.70;99.90;;;;;;5059509;28;20055;-73
2023/05/05 07:25:07;;;;;;;15.87;12.53;;;14.90;99.90;;;;;;5060287;28;20283;-73
2023/05/05 07:27:33;;;;;;;14.50;12.30;;;15.10;99.90;;;;;;5058123;28;20048;-73
2023/05/05 07:29:58;;;;;;;14.77;12.13;;;15.10;99.90;;;;;;5053113;28;20295;-73
2023/05/05 07:32:25;;;;;;;14.70;13.07;;;15.30;99.90;;;;;;5052174;28;20284;-73
2023/05/05 07:34:50;;;;;;;16.80;12.67;;;15.40;99.90;;;;;;5032423;28;20045;-74
2023/05/05 07:37:16;;;;;;;14.40;12.80;;;15.50;99.90;;;;;;5050874;28;20296;-73
2023/05/05 07:39:42;;;;;;;15.33;12.60;;;15.70;99.90;;;;;;5052051;28;20044;-74
2023/05/05 07:42:08;;;;;;;18.20;11.97;;;15.90;99.90;;;;;;5033938;28;20045;-73
2023/05/05 07:44:33;;;;;;;17.60;13.60;;;16.00;99.90;;;;;;5051004;28;20105;-74
2023/05/05 07:46:59;;;;;;;14.37;12.80;;;16.10;99.90;;;;;;5045916;28;20301;-74
2023/05/05 07:49:25;;;;;;;17.43;12.83;;;16.30;99.90;;;;;;5028412;28;20049;-73
2023/05/05 07:51:51;;;;;;;17.47;13.43;;;16.40;99.90;;;;;;5028756;28;20068;-74
2023/05/05 07:54:17;;;;;;;19.07;13.40;;;16.60;99.90;;;;;;5047793;28;20346;-74
2023/05/05 07:56:43;;;;;;;15.63;13.80;;;16.80;99.90;;;;;;5050405;28;20286;-74
2023/05/05 07:59:10;;;;;;;15.07;13.47;;;16.80;99.90;;;;;;5030742;28;20292;-74
2023/05/05 08:01:36;;;;;;;16.37;13.80;;;17.00;99.90;;;;;;5052335;28;20039;-74
2023/05/05 08:04:02;;;;;;;18.97;14.37;;;17.20;99.90;;;;;;5048782;28;20291;-74
2023/05/05 08:06:30;;;;;;;17.07;13.50;;;17.30;99.90;;;;;;5030877;28;20386;-74
2023/05/05 08:08:58;;;;;;;15.47;13.17;;;17.40;99.90;;;;;;5033682;28;20389;-74
2023/05/05 08:11:25;;;;;;;18.60;14.60;;;17.50;99.90;;;;;;5040231;28;20776;-75
2023/05/05 08:13:50;;;;;;;17.37;13.93;;;17.50;99.90;;;;;;5052731;28;20279;-75
2023/05/05 08:16:16;;;;;;;16.27;14.50;;;17.50;99.90;;;;;;5053330;28;20287;-74
2023/05/05 08:18:42;;;;;;;16.83;13.97;;;17.60;99.90;;;;;;5028083;28;20037;-75
2023/05/05 08:21:10;;;;;;;20.70;15.33;;;17.50;99.90;;;;;;5053160;28;20033;-75
2023/05/05 08:23:36;;;;;;;18.87;14.33;;;17.50;99.90;;;;;;5046925;28;20037;-74
2023/05/05 08:26:05;;;;;;;17.43;13.47;;;17.50;99.90;;;;;;5053863;28;20772;-75
2023/05/05 08:28:31;;;;;;;22.20;15.63;;;17.60;99.90;;;;;;5029915;28;20287;-75
2023/05/05 08:30:57;;;;;;;19.23;16.20;;;17.70;99.90;;;;;;5038530;28;20294;-74
2023/05/05 08:33:23;;;;;;;20.90;15.13;;;17.80;99.90;;;;;;5049540;28;21163;-74
2023/05/05 08:35:49;;;;;;;16.03;14.30;;;17.90;99.90;;;;;;5033540;28;20287;-74
2023/05/05 08:38:15;;;;;;;21.00;15.20;;;17.90;99.90;;;;;;5052637;28;20045;-74
2023/05/05 08:40:41;;;;;;;22.00;15.43;;;18.00;99.90;;;;;;5036681;28;20314;-74
2023/05/05 08:43:07;;;;;;;19.63;14.50;;;18.10;99.90;;;;;;5047101;28;20088;-74
2023/05/05 08:45:33;;;;;;;19.93;15.00;;;18.20;99.90;;;;;;5024824;28;20033;-74
2023/05/05 08:48:03;;;;;;;18.07;14.83;;;18.30;99.90;;;;;;5028425;28;20037;-74
2023/05/05 08:50:30;;;;;;;19.50;15.47;;;18.30;99.90;;;;;;5053561;28;20048;-75
2023/05/05 08:53:09;;;;;;;24.47;16.93;;;18.40;99.90;;;;;;5046779;28;20294;-73
2023/05/05 08:55:58;;;;;;;19.43;16.07;;;18.50;99.90;;;;;;5051674;28;20286;-73
2023/05/05 08:58:24;;;;;;;19.10;15.47;;;18.60;99.90;;;;;;5048801;28;20641;-73
2023/05/05 09:00:51;;;;;;;21.17;16.47;;;18.70;99.90;;;;;;5044203;28;20279;-73
2023/05/05 09:03:17;;;;;;;20.93;15.30;;;18.90;99.90;;;;;;5027709;28;20271;-73
2023/05/05 09:05:43;;;;;;;18.23;15.43;;;18.90;99.90;;;;;;5032348;28;20901;-73
2023/05/05 09:08:12;;;;;;;21.70;15.77;;;18.80;99.90;;;;;;5032129;28;20367;-73
2023/05/05 09:10:42;;;;;;;20.80;16.10;;;18.80;99.90;;;;;;5045343;28;20280;-73
2023/05/05 09:13:08;;;;;;;20.87;16.53;;;18.80;99.90;;;;;;5048168;28;20283;-73
2023/05/05 09:15:34;;;;;;;26.60;17.53;;;18.70;99.90;;;;;;5051884;28;20917;-73
2023/05/05 09:18:00;;;;;;;22.03;16.57;;;18.70;99.90;;;;;;5069708;28;20042;-73
2023/05/05 09:20:37;;;;;;;22.10;16.37;;;18.70;99.90;;;;;;5048091;28;20275;-73
2023/05/05 09:23:09;;;;;;;21.97;16.47;;;18.80;98.80;;;;;;5042065;28;20278;-73
2023/05/05 09:25:34;;;;;;;23.43;16.53;;;18.90;99.90;;;;;;5038916;28;20333;-74
2023/05/05 09:28:07;;;;;;;17.07;12.20;;;19.00;99.90;;;;;;5048422;28;20279;-74
2023/05/05 09:30:34;;;;;;;14.80;9.87;;;19.10;99.90;;;;;;5027275;28;20047;-74
2023/05/05 09:33:01;;;;;;;18.13;11.23;;;19.10;97.30;;;;;;5019842;28;20901;-73
2023/05/05 09:35:26;;;;;;;16.43;11.97;;;19.00;97.10;;;;;;5020887;28;20702;-73
2023/05/05 09:37:52;;;;;;;14.80;11.63;;;19.10;96.80;;;;;;5025279;28;20350;-73
2023/05/05 09:40:19;;;;;;;18.93;12.77;;;19.10;99.20;;;;;;5037963;28;20051;-73
2023/05/05 09:42:46;;;;;;;17.50;12.23;;;19.20;99.80;;;;;;5016131;28;20043;-73
2023/05/05 09:45:17;;;;;;;16.37;11.70;;;19.50;99.90;;;;;;5039533;28;20613;-73
2023/05/05 09:47:44;;;;;;;13.20;10.00;;;19.60;96.00;;;;;;5024592;28;20032;-75
2023/05/05 09:50:14;;;;;;;14.00;10.33;;;19.70;97.90;;;;;;5030829;28;20303;-74
2023/05/05 09:52:53;;;;;;;16.47;11.30;;;19.90;99.80;;;;;;5044968;28;20036;-74
2023/05/05 09:55:19;;;;;;;14.80;10.00;;;20.10;96.00;;;;;;5032777;28;20044;-74
2023/05/05 09:57:46;;;;;;;15.70;10.40;;;20.20;94.50;;;;;;5031503;28;20037;-74
2023/05/05 10:00:13;;;;;;;19.60;10.50;;;20.30;95.60;;;;;;5042947;28;20049;-74
2023/05/05 10:02:39;;;;;;;12.60;9.27;;;20.50;95.00;;;;;;5031768;28;20029;-74
2023/05/05 10:05:10;;;;;;;10.13;7.70;;;20.60;91.90;;;;;;5023495;28;20049;-74
2023/05/05 10:07:38;;;;;;;13.70;7.37;;;20.70;93.90;;;;;;5030896;28;20048;-74
2023/05/05 10:10:06;;;;;;;12.77;8.43;;;20.60;90.40;;;;;;5032023;28;20045;-74
2023/05/05 10:12:34;;;;;;;10.13;6.33;;;20.50;90.60;;;;;;5031485;28;20507;-74
2023/05/05 10:15:01;;;;;;;12.93;8.17;;;20.40;90.40;;;;;;5043189;28;20493;-74
2023/05/05 10:17:31;;;;;;;12.33;7.07;;;20.20;93.10;;;;;;5040291;28;20056;-74
2023/05/05 10:20:00;;;;;;;9.70;6.00;;;20.00;89.20;;;;;;5021391;28;20033;-74
2023/05/05 10:22:31;;;;;;;9.27;6.00;;;19.90;89.80;;;;;;5043993;28;20097;-74
2023/05/05 10:25:02;;;;;;;8.10;5.87;;;19.90;91.50;;;;;;5051317;28;20040;-74
2023/05/05 10:27:36;;;;;;;8.60;6.57;;;19.70;90.70;;;;;;5047639;28;20045;-74
2023/05/05 10:30:15;;;;;;;9.13;6.30;;;19.80;92.00;;;;;;5047082;28;20080;-74
2023/05/05 10:32:49;;;;;;;9.63;6.50;;;19.70;89.60;;;;;;5030666;28;20044;-74
2023/05/05 10:35:26;;;;;;;9.30;6.22;;;19.70;91.40;;;;;;5050168;28;20123;-74
2023/05/05 10:37:53;;;;;;;8.90;6.23;;;19.90;93.90;;;;;;5026842;28;20053;-74
2023/05/05 10:40:21;;;;;;;10.70;7.57;;;20.30;87.30;;;;;;5029447;28;20037;-74
2023/05/05 10:42:47;;;;;;;11.13;7.93;;;20.40;87.10;;;;;;5050415;28;20029;-74
2023/05/05 10:45:13;;;;;;;11.80;8.60;;;20.30;88.90;;;;;;5030258;28;20033;-74
2023/05/05 10:47:39;;;;;;;12.67;8.47;;;20.20;89.80;;;;;;5031450;28;20120;-74
2023/05/05 10:50:28;;;;;;;11.53;8.70;;;20.10;88.50;;;;;;5026626;28;20114;-74
2023/05/05 10:53:07;;;;;;;9.07;7.50;;;20.00;90.80;;;;;;5047889;28;20513;-74
2023/05/05 10:56:03;;;;;;;9.07;7.43;;;20.10;90.50;;;;;;5046787;28;20044;-74
2023/05/05 10:58:40;;;;;;;12.67;8.67;;;20.00;89.30;;;;;;5045454;28;20049;-74
2023/05/05 11:01:06;;;;;;;9.80;7.73;;;20.00;91.90;;;;;;5050049;28;20749;-74
2023/05/05 11:03:32;;;;;;;9.73;7.43;;;20.00;91.30;;;;;;5039483;28;20108;-74
2023/05/05 11:06:04;;;;;;;11.20;7.63;;;20.10;88.70;;;;;;5019774;28;20560;-74
2023/05/05 11:08:34;;;;;;;9.83;6.60;;;20.00;87.60;;;;;;5028201;28;20067;-74
2023/05/05 11:11:00;;;;;;;8.70;7.00;;;20.00;88.50;;;;;;5041910;28;20427;-74
2023/05/05 11:13:26;;;;;;;12.33;8.00;;;20.00;89.20;;;;;;5049737;28;20391;-74
2023/05/05 11:15:54;;;;;;;10.27;7.10;;;20.00;90.00;;;;;;5050472;28;20079;-74
2023/05/05 11:18:34;;;;;;;10.37;6.93;;;20.10;87.50;;;;;;5047415;28;20052;-74
2023/05/05 11:21:01;;;;;;;10.77;7.67;;;20.10;88.60;;;;;;5030999;28;20397;-74
2023/05/05 11:23:27;;;;;;;9.70;7.73;;;20.30;88.80;;;;;;5024890;28;20116;-74
2023/05/05 11:25:56;;;;;;;8.00;6.83;;;20.40;88.80;;;;;;5043839;28;20043;-75
2023/05/05 11:28:24;;;;;;;10.43;6.87;;;20.40;86.20;;;;;;5024669;28;20112;-75
2023/05/05 11:30:57;;;;;;;6.77;4.10;;;20.10;85.50;;;;;;5050044;28;20036;-76
2023/05/05 11:33:27;;;;;;;5.27;3.87;;;20.00;85.30;;;;;;5065108;28;20084;-75
2023/05/05 11:36:00;;;;;;;6.60;4.23;;;19.90;85.60;;;;;;5042427;28;20072;-73
2023/05/05 11:38:38;;;;;;;7.73;5.20;;;20.10;86.70;;;;;;5036504;28;20076;-75
2023/05/05 11:41:45;;;;;;;6.57;4.13;;;20.10;83.10;;;;;;5052716;28;20033;-75
2023/05/05 11:44:11;;;;;;;6.27;4.40;;;20.10;85.60;;;;;;4988374;28;20046;-76
2023/05/05 11:47:03;;;;;;;9.03;5.70;;;20.10;85.10;;;;;;5025135;28;20136;-76
2023/05/05 11:49:38;;;;;;;7.07;5.43;;;20.10;84.10;;;;;;5043929;28;20081;-75
2023/05/05 11:52:11;;;;;;;10.37;6.30;;;20.20;85.40;;;;;;5036517;28;20041;-76
2023/05/05 11:54:48;;;;;;;8.17;6.17;;;20.20;87.80;;;;;;5050950;28;20037;-75
2023/05/05 11:57:16;;;;;;;7.00;5.60;;;20.40;87.80;;;;;;5027360;28;20680;-74
2023/05/05 11:59:59;;;;;;;9.80;6.07;;;20.50;87.10;;;;;;5040168;28;20066;-76
2023/05/05 12:02:27;;;;;;;9.87;6.20;;;20.40;86.50;;;;;;5030669;28;20065;-76
2023/05/05 12:04:53;;;;;;;9.37;6.47;;;20.40;87.30;;;;;;5031812;28;20045;-74
2023/05/05 12:07:29;;;;;;;9.10;6.70;;;20.30;87.00;;;;;;5056676;28;20069;-75
2023/05/05 12:09:55;;;;;;;10.47;7.23;;;20.20;87.40;;;;;;5037907;28;20110;-75
2023/05/05 12:12:36;;;;;;;7.43;6.13;;;20.10;87.60;;;;;;5032565;28;20064;-75
2023/05/05 12:15:02;;;;;;;9.40;7.50;;;19.90;87.40;;;;;;5048404;28;20045;-75
2023/05/05 12:17:38;;;;;;;11.43;7.40;;;19.60;87.90;;;;;;5050254;28;20042;-75
2023/05/05 12:20:04;;;;;;;7.70;6.17;;;19.40;89.30;;;;;;5049996;28;20052;-75
2023/05/05 12:22:30;;;;;;;7.73;6.07;;;19.30;91.50;;;;;;5044940;28;20056;-75
2023/05/05 12:24:57;;;;;;;8.47;6.73;;;19.20;92.20;;;;;;5045444;28;20041;-75
2023/05/05 12:27:25;;;;;;;11.17;6.80;;;19.00;90.50;;;;;;5040781;28;20053;-75
2023/05/05 12:29:53;;;;;;;9.50;5.87;;;18.90;91.00;;;;;;5037867;28;20040;-76
2023/05/05 12:32:26;;;;;;;11.17;6.40;;;18.80;90.40;;;;;;5027835;28;20037;-75
2023/05/05 12:34:56;;;;;;;9.40;6.43;;;18.80;92.00;;;;;;5026315;28;20049;-74
2023/05/05 12:37:23;;;;;;;11.40;6.43;;;18.70;92.00;;;;;;5027871;28;20398;-76
2023/05/05 12:39:49;;;;;;;10.33;6.90;;;18.60;94.80;;;;;;5053535;28;20068;-75
2023/05/05 12:42:15;;;;;;;10.10;7.10;;;18.50;95.40;;;;;;5033005;28;20049;-74
2023/05/05 12:44:43;;;;;;;11.83;6.80;;;18.40;95.70;;;;;;5030999;28;20036;-75